Castlegar/West Kootenay Regional Airport
CYCG : now visible

Airfield :











YOU CAN JOIN US ON...

 
LOGIN :

Register | Disclaimer

   EN    FR    IT 

 









Legend :    VFR   Marginal VFR   IFR   Intensive IFR   Very Intensive IFR
Visi :
Ceiling :
>= 8 km
>= 3000ft
5 to 8 km
1000 to 3000 ft
1500m to 5 km
500 to 1000 ft
800 to 1500m
200 to 500 ft
< 800m
< 200 ft
Symbols :   Thunderstorms  Fog  Heavy snow  Heavy precipitations  Wind > 20 kt






- Airport Elevation : 1624 ft
- IATA code : YCG


CYCG - Castlegar/West Kootenay Regional

CURRENT METAR :
  • 282200Z 34015G22KT 6SM -SN FEW020 BKN030 OVC050 M03/M09 A2979 RMK CF1SC5SC2 SLP114

EXPIRED METARs :
  • 282136Z 36010G15KT 310V030 6SM -SN FEW025 BKN032 OVC052 M03/M10 A2979 RMK SC2SC3SC3 SLP114
  • 282100Z 36010G15KT 320V040 5SM -SN FEW017 BKN029 OVC034 M04/M09 A2979 RMK ST1SC4SC3 SLP114
  • 282000Z 36012G18KT 330V030 4SM -SN BR SCT017 BKN028 OVC034 M04/M08 A2979 RMK ST3SC3SC2 SLP114

TAF AMD TAF CYCG
Valid from the 28 at 22:00 until the 29 at 01:00 UTC


282208Z 2822/2901 35012G22KT 6SM -SN FEW020 OVC030
TEMPO 2822/2901 3SM -SHSN BR BKN020 OVC030 RMK NXT FCST BY 291600Z
CZVR FIR / North America



MET'MAP, your aeronautical weather chart ! - Copyright ORBIFLY December 2007 - Disclaimer

ORBIFLY MET'MAP TEAM :

Programming & Development : Alexandra Zaïnal
Original concept : Baudouin d'Aumeries
Technical & hardware support : Manuel Goepfert
Assistance : Marc-Olivier Méhu




SOURCES & CREDITS :

   NOAA       Earth
Advisory